Time;durP1;ratioP1;P1;durP2;ratioP2;P2;SDS_P1;SDS_P2;PMS_P1;PMS_P2;Temp;Humidity;BMP_temperature;BMP_pressure;BME280_temperature;BME280_humidity;BME280_pressure;Samples;Min_cycle;Max_cycle;Signal;HPM_P1;HPM_P2
2024/02/17 07:10:36;;;;;;;;;1.33;0.67;;;;;22.40;45.05;102976.97;6378010;22;45872;-73
2024/02/17 07:13:03;;;;;;;;;1.00;1.00;;;;;22.36;45.47;102977.38;6400419;22;45240;-75
2024/02/17 07:15:28;;;;;;;;;3.00;1.00;;;;;22.43;45.12;102990.97;6398874;22;46040;-75
2024/02/17 07:17:54;;;;;;;;;1.00;1.00;;;;;22.35;44.77;102971.22;6400321;22;45250;-74
2024/02/17 07:20:19;;;;;;;;;2.33;0.00;;;;;22.44;44.80;102996.13;6400434;22;45332;-75
2024/02/17 07:22:46;;;;;;;;;1.00;0.00;;;;;22.40;45.02;102995.53;6400326;22;45381;-76
2024/02/17 07:25:11;;;;;;;;;2.00;2.00;;;;;22.45;45.31;103010.22;6399684;22;46950;-75
2024/02/17 07:27:36;;;;;;;;;4.00;1.00;;;;;22.44;45.04;103006.72;6400284;22;45256;-75
2024/02/17 07:30:02;;;;;;;;;2.00;1.00;;;;;22.44;44.58;103012.03;6400436;22;45318;-76
2024/02/17 07:32:29;;;;;;;;;0.00;0.00;;;;;22.45;45.20;103012.88;6400720;22;45407;-76
2024/02/17 07:34:54;;;;;;;;;1.00;0.00;;;;;22.46;44.50;103009.25;6400362;22;47105;-76
2024/02/17 07:37:20;;;;;;;;;1.00;1.00;;;;;22.45;45.10;103016.38;6400147;22;58235;-75
2024/02/17 07:39:48;;;;;;;;;2.33;1.33;;;;;22.47;45.16;103021.53;6399467;22;45363;-75
2024/02/17 07:42:13;;;;;;;;;0.00;0.00;;;;;22.48;44.45;103023.25;6400473;22;45314;-76
2024/02/17 07:44:42;;;;;;;;;1.33;1.33;;;;;22.48;44.61;103021.41;6400713;22;45322;-74
2024/02/17 07:47:07;;;;;;;;;2.33;1.00;;;;;22.49;44.88;103030.22;6400581;22;45265;-76
2024/02/17 07:49:33;;;;;;;;;3.00;1.33;;;;;22.50;44.79;103039.88;6400295;22;45165;-75
2024/02/17 07:51:59;;;;;;;;;0.67;0.67;;;;;22.49;44.62;103043.47;6401102;22;45375;-75
2024/02/17 07:54:24;;;;;;;;;1.00;1.00;;;;;22.49;44.26;103043.47;6400170;22;45298;-75
2024/02/17 07:56:49;;;;;;;;;0.00;0.00;;;;;22.47;44.24;103045.41;6400873;22;45298;-75
2024/02/17 07:59:15;;;;;;;;;1.00;1.00;;;;;22.50;44.46;103048.66;6400443;22;45256;-75
2024/02/17 08:01:40;;;;;;;;;1.00;0.00;;;;;22.50;44.36;103055.78;6400104;22;47313;-73
2024/02/17 08:04:05;;;;;;;;;1.00;1.00;;;;;22.51;44.76;103058.28;6400141;22;48682;-74
2024/02/17 08:06:31;;;;;;;;;2.67;1.00;;;;;22.51;44.69;103057.44;6400217;22;45203;-75
2024/02/17 08:08:56;;;;;;;;;1.33;1.33;;;;;22.50;44.80;103059.28;6399686;22;54437;-75
2024/02/17 08:11:21;;;;;;;;;0.33;0.33;;;;;22.49;44.38;103060.25;6400203;22;59212;-76
2024/02/17 08:13:47;;;;;;;;;3.67;1.67;;;;;22.50;44.91;103066.38;6399921;22;46075;-76
2024/02/17 08:16:12;;;;;;;;;1.67;1.67;;;;;22.51;44.51;103071.56;6400614;22;45211;-76
2024/02/17 08:18:41;;;;;;;;;2.00;0.00;;;;;22.48;44.57;103078.94;6400554;22;45287;-76
2024/02/17 08:21:07;;;;;;;;;2.33;1.00;;;;;22.54;44.18;103094.34;6400220;22;45314;-76
2024/02/17 08:23:33;;;;;;;;;3.33;1.33;;;;;22.56;44.28;103095.03;6399554;22;47145;-75
2024/02/17 08:26:00;;;;;;;;;4.33;1.00;;;;;22.57;44.08;103085.28;6400266;22;45291;-75
2024/02/17 08:28:26;;;;;;;;;1.00;1.00;;;;;22.54;44.14;103083.72;6399675;22;45359;-75
2024/02/17 08:30:52;;;;;;;;;1.00;1.00;;;;;22.56;44.01;103081.78;6400204;22;45434;-75
2024/02/17 08:33:17;;;;;;;;;2.00;1.67;;;;;22.56;44.07;103088.91;6400066;22;46031;-76
2024/02/17 08:35:44;;;;;;;;;2.33;1.00;;;;;22.55;43.99;103082.75;6400528;22;45255;-75
2024/02/17 08:38:10;;;;;;;;;1.00;1.00;;;;;22.56;44.30;103089.72;6399903;22;45249;-76
2024/02/17 08:40:37;;;;;;;;;3.00;1.33;;;;;22.58;44.62;103089.63;6371481;22;45434;-75
2024/02/17 08:43:02;;;;;;;;;3.00;1.00;;;;;22.64;44.42;103094.38;6400000;22;46205;-76
2024/02/17 08:45:27;;;;;;;;;0.33;0.33;;;;;22.65;44.50;103096.09;6400438;22;45216;-75
2024/02/17 08:47:54;;;;;;;;;0.67;0.67;;;;;22.65;44.35;103092.59;6400313;22;45244;-76
2024/02/17 08:50:20;;;;;;;;;2.67;1.00;;;;;22.65;44.51;103096.09;6400706;22;45215;-75
2024/02/17 08:52:46;;;;;;;;;1.00;1.00;;;;;22.61;44.01;103097.34;6399890;22;45950;-76
2024/02/17 08:55:11;;;;;;;;;1.00;1.00;;;;;22.59;43.90;103099.25;6400122;22;45215;-76
2024/02/17 08:57:36;;;;;;;;;1.00;1.00;;;;;22.52;43.96;103094.47;6400298;22;46478;-76
2024/02/17 09:00:03;;;;;;;;;0.00;0.00;;;;;22.65;44.08;103109.34;6399927;22;45396;-75
2024/02/17 09:02:28;;;;;;;;;1.00;1.00;;;;;22.64;43.94;103112.97;6399941;22;46309;-75
2024/02/17 09:04:53;;;;;;;;;0.33;0.33;;;;;22.53;44.05;103100.63;6399655;22;46026;-76
2024/02/17 09:07:19;;;;;;;;;0.00;0.00;;;;;22.63;44.48;103117.47;6400026;22;45294;-76
2024/02/17 09:09:44;;;;;;;;;1.67;0.00;;;;;22.63;44.20;103116.59;6371231;22;49472;-75
2024/02/17 09:12:09;;;;;;;;;0.67;0.67;;;;;22.62;44.00;103120.22;6399813;22;46001;-76
2024/02/17 09:14:34;;;;;;;;;1.00;1.00;;;;;22.61;44.31;103118.56;6400428;22;45206;-73
2024/02/17 09:17:00;;;;;;;;;1.00;1.00;;;;;22.62;43.82;103123.72;6400436;22;45224;-76
2024/02/17 09:19:26;;;;;;;;;0.00;0.00;;;;;22.57;44.09;103117.97;6400486;22;45550;-74
2024/02/17 09:21:55;;;;;;;;;1.00;1.00;;;;;22.51;43.77;103114.00;6399263;22;46202;-76
2024/02/17 09:24:24;;;;;;;;;0.67;0.67;;;;;22.60;43.80;103127.47;6399591;22;45289;-74
2024/02/17 09:26:50;;;;;;;;;0.00;0.00;;;;;22.60;44.30;103127.47;6400046;22;45370;-76
2024/02/17 09:29:15;;;;;;;;;1.00;1.00;;;;;22.59;44.32;103123.97;6399793;22;45281;-75
2024/02/17 09:31:41;;;;;;;;;0.33;0.33;;;;;22.51;44.24;103113.16;6400238;22;45332;-76
2024/02/17 09:34:06;;;;;;;;;0.00;0.00;;;;;22.51;43.67;103115.81;6399946;22;45275;-76
2024/02/17 09:36:31;;;;;;;;;1.33;0.33;;;;;22.61;43.73;103132.63;6399377;22;45290;-75
2024/02/17 09:38:57;;;;;;;;;0.67;0.67;;;;;22.60;43.99;103130.97;6399737;22;52791;-75
2024/02/17 09:41:22;;;;;;;;;0.33;0.00;;;;;22.61;44.31;103134.47;6399520;22;58216;-76
2024/02/17 09:43:49;;;;;;;;;1.00;1.00;;;;;22.59;44.29;103133.72;6399328;22;45286;-76
2024/02/17 09:46:16;;;;;;;;;1.00;1.00;;;;;22.60;43.94;103136.28;6398246;22;45295;-73
2024/02/17 09:48:42;;;;;;;;;1.00;1.00;;;;;22.62;44.17;103150.25;6399637;22;45417;-75
2024/02/17 09:51:08;;;;;;;;;1.67;1.33;;;;;22.54;44.28;103142.09;6398949;22;46065;-75
2024/02/17 09:53:36;;;;;;;;;0.00;0.00;;;;;22.55;44.10;103141.13;6399532;22;45314;-75
2024/02/17 09:56:02;;;;;;;;;0.00;0.00;;;;;22.61;44.22;103159.16;6399915;22;45221;-76
2024/02/17 09:58:27;;;;;;;;;1.67;1.00;;;;;22.49;43.86;103134.50;6399666;22;45478;-76
2024/02/17 10:00:53;;;;;;;;;2.00;1.00;;;;;22.62;43.93;103155.56;6399327;22;47290;-76
2024/02/17 10:03:19;;;;;;;;;0.67;0.67;;;;;22.62;43.77;103160.88;6399582;22;45272;-75
2024/02/17 10:05:44;;;;;;;;;2.00;1.00;;;;;22.61;43.83;103161.81;6399377;22;45329;-75
2024/02/17 10:08:11;;;;;;;;;1.00;1.00;;;;;22.61;44.27;103156.50;6399990;22;45362;-75
2024/02/17 10:10:38;;;;;;;;;2.67;0.00;;;;;22.55;44.08;103138.47;6399677;22;45315;-76
2024/02/17 10:13:05;;;;;;;;;2.00;1.00;;;;;22.61;44.18;103151.22;6399216;22;45345;-75
2024/02/17 10:15:32;;;;;;;;;1.33;1.00;;;;;22.62;43.65;103144.09;6399585;22;45365;-76
2024/02/17 10:17:57;;;;;;;;;0.00;0.00;;;;;22.61;43.64;103148.56;6399327;22;45305;-76
2024/02/17 10:20:23;;;;;;;;;1.00;1.00;;;;;22.63;43.94;103135.19;6399079;22;45636;-75
2024/02/17 10:22:48;;;;;;;;;2.00;0.33;;;;;22.64;44.22;103131.53;6399894;22;45294;-75
2024/02/17 10:25:14;;;;;;;;;1.00;1.00;;;;;22.72;44.03;103138.88;6400106;22;45280;-75
2024/02/17 10:27:41;;;;;;;;;1.00;1.00;;;;;22.76;44.08;103140.34;6399327;22;45419;-75
2024/02/17 10:30:14;;;;;;;;;1.00;1.00;;;;;22.77;43.58;103131.38;6398854;22;45640;-75
2024/02/17 10:32:39;;;;;;;;;2.00;0.00;;;;;22.76;44.01;103132.38;6399198;22;45323;-77
2024/02/17 10:35:07;;;;;;;;;0.67;0.67;;;;;22.75;43.79;103122.72;6399308;22;45264;-75
2024/02/17 10:37:35;;;;;;;;;2.00;2.00;;;;;22.88;44.38;103146.41;6400659;22;45365;-76
2024/02/17 10:40:05;;;;;;;;;1.33;1.33;;;;;22.88;43.73;103143.75;6400975;22;45577;-75
2024/02/17 10:42:31;;;;;;;;;0.00;0.00;;;;;22.92;43.94;103145.19;6400532;22;45094;-75
2024/02/17 10:45:00;;;;;;;;;2.33;1.00;;;;;22.94;43.87;103148.56;6400731;22;45164;-76
2024/02/17 10:47:32;;;;;;;;;1.67;1.00;;;;;22.80;44.29;103128.47;6400804;22;45199;-75
2024/02/17 10:50:19;;;;;;;;;3.00;1.33;;;;;22.97;43.90;103150.09;6399788;22;47055;-76
2024/02/17 10:52:55;;;;;;;;;1.00;1.00;;;;;22.98;43.72;103143.81;6372270;22;45303;-75
2024/02/17 10:55:24;;;;;;;;;3.67;2.00;;;;;23.00;43.70;103156.97;6400704;22;45370;-75
2024/02/17 10:57:53;;;;;;;;;1.33;1.00;;;;;22.99;43.79;103164.09;6400734;22;45379;-76
2024/02/17 11:00:19;;;;;;;;;0.33;0.33;;;;;22.98;44.00;103158.91;6400381;22;46277;-73
2024/02/17 11:02:48;;;;;;;;;1.67;1.67;;;;;22.94;44.26;103155.66;6399928;22;45322;-75
2024/02/17 11:05:15;;;;;;;;;4.00;3.00;;;;;22.96;40.65;103169.66;6400738;22;45224;-74
2024/02/17 11:07:42;;;;;;;;;4.67;4.67;;;;;22.76;39.93;103158.91;6401104;22;45192;-74
2024/02/17 11:10:08;;;;;;;;;3.33;2.00;;;;;22.65;39.64;103164.22;6400119;22;46160;-78
2024/02/17 11:12:36;;;;;;;;;3.00;2.00;;;;;22.44;39.66;103146.47;6400136;22;45332;-75
2024/02/17 11:15:06;;;;;;;;;3.00;1.00;;;;;22.35;39.43;103170.13;6399924;22;45239;-76
2024/02/17 11:17:42;;;;;;;;;2.00;1.00;;;;;22.13;40.01;103155.97;6399713;22;45417;-76
2024/02/17 11:20:15;;;;;;;;;1.67;1.67;;;;;22.04;39.32;103162.84;6399734;22;45922;-76
2024/02/17 11:22:50;;;;;;;;;3.00;2.33;;;;;22.05;40.51;103169.84;6400786;22;45274;-79
2024/02/17 11:25:39;;;;;;;;;1.00;1.00;;;;;22.07;40.34;103169.72;6400540;22;45220;-78
2024/02/17 11:28:19;;;;;;;;;1.00;1.00;;;;;22.12;40.77;103172.03;6400573;22;45523;-79
2024/02/17 11:30:54;;;;;;;;;1.67;1.00;;;;;22.16;40.88;103176.94;6400669;22;46124;-78
2024/02/17 11:33:26;;;;;;;;;2.00;1.33;;;;;22.21;40.59;103173.91;6400687;22;45295;-77
2024/02/17 11:35:52;;;;;;;;;3.00;1.00;;;;;22.13;41.06;103158.63;6400407;22;45299;-78
2024/02/17 11:38:26;;;;;;;;;1.00;1.00;;;;;22.28;41.00;103183.06;6400376;22;45263;-78
2024/02/17 11:40:54;;;;;;;;;3.00;0.00;;;;;22.30;41.20;103185.59;6399989;22;46164;-79
2024/02/17 11:43:24;;;;;;;;;2.00;1.00;;;;;22.34;40.66;103178.22;6399333;22;45317;-78
2024/02/17 11:45:51;;;;;;;;;1.00;1.00;;;;;22.37;41.08;103188.59;6399554;22;45304;-79
2024/02/17 11:48:17;;;;;;;;;1.00;1.00;;;;;22.33;40.94;103174.72;6399735;22;45375;-78
2024/02/17 11:50:42;;;;;;;;;3.33;1.00;;;;;22.14;41.26;103130.31;6400074;22;47030;-78
2024/02/17 11:53:08;;;;;;;;;2.33;1.00;;;;;22.44;41.65;103181.81;6400854;22;45298;-79
2024/02/17 11:55:34;;;;;;;;;2.67;2.00;;;;;22.38;41.69;103175.19;6400734;22;45376;-76
2024/02/17 11:57:59;;;;;;;;;2.00;0.00;;;;;22.48;41.92;103182.41;6401028;22;45402;-72
2024/02/17 12:00:25;;;;;;;;;1.33;0.67;;;;;22.49;41.11;103190.22;6399938;22;46142;-77
2024/02/17 12:02:50;;;;;;;;;1.00;1.00;;;;;22.46;41.54;103179.00;6397977;22;45350;-75
2024/02/17 12:05:16;;;;;;;;;3.67;1.00;;;;;22.39;42.01;103174.22;6400883;22;45222;-80
2024/02/17 12:07:41;;;;;;;;;1.67;1.00;;;;;22.53;41.86;103193.47;6400184;22;45179;-78
2024/02/17 12:10:12;;;;;;;;;1.00;1.00;;;;;22.54;41.90;103189.84;6399643;22;47169;-77
2024/02/17 12:12:40;;;;;;;;;4.00;1.00;;;;;22.54;41.28;103187.19;6399235;22;45269;-76
2024/02/17 12:15:09;;;;;;;;;1.00;1.00;;;;;22.57;41.42;103194.06;6400499;22;45275;-80
2024/02/17 12:17:42;;;;;;;;;1.00;1.00;;;;;22.58;41.37;103190.44;6399240;22;45417;-80
2024/02/17 12:20:12;;;;;;;;;2.33;2.00;;;;;22.58;41.00;103191.28;6398529;22;46026;-79
2024/02/17 12:22:41;;;;;;;;;1.00;1.00;;;;;22.48;40.97;103166.50;6398792;22;45241;-78
2024/02/17 12:25:08;;;;;;;;;1.67;1.33;;;;;22.60;40.79;103175.22;6400049;22;45248;-79
2024/02/17 12:27:33;;;;;;;;;1.00;1.00;;;;;22.61;40.81;103175.09;6399550;22;45390;-78
2024/02/17 12:29:59;;;;;;;;;2.00;1.00;;;;;22.61;41.29;103176.94;6399490;22;45302;-78
2024/02/17 12:32:24;;;;;;;;;1.00;1.00;;;;;22.54;40.85;103159.81;6399421;22;45289;-80
2024/02/17 12:34:49;;;;;;;;;4.00;2.00;;;;;22.51;40.91;103160.91;6400823;22;45286;-83
2024/02/17 12:37:16;;;;;;;;;0.67;0.67;;;;;22.55;41.44;103161.50;6400230;22;45300;-83
2024/02/17 12:39:42;;;;;;;;;2.33;1.00;;;;;22.56;41.22;103157.91;6400131;22;47004;-87
2024/02/17 12:42:07;;;;;;;;;2.33;1.00;;;;;22.53;41.76;103156.34;6400657;22;45355;-84
2024/02/17 12:44:33;;;;;;;;;0.33;0.00;;;;;22.49;41.72;103142.47;6399852;22;45166;-79
2024/02/17 12:46:58;;;;;;;;;2.00;1.00;;;;;22.65;41.35;103162.41;6400692;22;45343;-79
2024/02/17 12:49:24;;;;;;;;;0.67;0.67;;;;;22.66;41.87;103161.47;6399517;22;47166;-80
2024/02/17 12:51:51;;;;;;;;;1.67;1.67;;;;;22.67;41.67;103165.78;6399439;22;45282;-83
2024/02/17 12:54:20;;;;;;;;;1.00;1.00;;;;;22.67;42.27;103162.28;6399448;22;45285;-80
2024/02/17 12:56:46;;;;;;;;;2.00;1.00;;;;;22.68;41.75;103164.81;6399867;22;45635;-80
2024/02/17 12:59:12;;;;;;;;;2.67;1.00;;;;;22.70;42.12;103162.06;6399436;22;45906;-79
2024/02/17 13:01:37;;;;;;;;;3.00;2.00;;;;;22.70;42.11;103162.91;6400256;22;45235;-78
2024/02/17 13:04:03;;;;;;;;;2.00;1.00;;;;;22.70;42.28;103162.06;6399990;22;50842;-79
2024/02/17 13:06:28;;;;;;;;;1.00;1.00;;;;;22.63;42.14;103151.09;6400413;22;45480;-77
2024/02/17 13:08:54;;;;;;;;;2.00;1.67;;;;;22.61;42.50;103147.75;6399130;22;46212;-81
2024/02/17 13:11:19;;;;;;;;;0.00;0.00;;;;;22.61;42.48;103145.09;6399955;22;45255;-78
2024/02/17 13:13:44;;;;;;;;;1.00;0.33;;;;;22.65;42.64;103145.66;6399715;22;45326;-79
2024/02/17 13:16:10;;;;;;;;;0.00;0.00;;;;;22.73;42.65;103165.31;6400269;22;45235;-78
2024/02/17 13:18:35;;;;;;;;;2.00;0.33;;;;;22.61;42.83;103151.22;6400390;22;46083;-80
2024/02/17 13:21:01;;;;;;;;;1.33;1.33;;;;;22.47;43.07;103115.25;6399429;22;45286;-77
2024/02/17 13:23:27;;;;;;;;;2.00;2.00;;;;;22.74;43.14;103156.38;6400381;22;45275;-77
2024/02/17 13:25:52;;;;;;;;;0.00;0.00;;;;;22.68;43.09;103154.22;6399801;22;45498;-78
2024/02/17 13:28:18;;;;;;;;;2.00;1.00;;;;;22.79;43.04;103168.44;6399159;22;47027;-79
2024/02/17 13:30:45;;;;;;;;;0.00;0.00;;;;;22.80;43.53;103172.75;6400132;22;45403;-79
2024/02/17 13:33:11;;;;;;;;;1.00;1.00;;;;;22.81;42.95;103177.09;6400032;22;45248;-77
2024/02/17 13:35:40;;;;;;;;;1.67;1.00;;;;;22.81;43.24;103172.63;6399865;22;45427;-79
2024/02/17 13:38:09;;;;;;;;;1.00;1.00;;;;;22.81;43.25;103167.31;6399721;22;45314;-79
2024/02/17 13:40:35;;;;;;;;;0.00;0.00;;;;;22.48;43.63;103116.91;6398966;22;45201;-78
2024/02/17 13:43:01;;;;;;;;;0.00;0.00;;;;;22.83;43.31;103172.50;6399053;22;45299;-76
2024/02/17 13:45:26;;;;;;;;;0.00;0.00;;;;;22.83;43.16;103165.38;6399429;22;45385;-81
2024/02/17 13:47:52;;;;;;;;;1.33;0.33;;;;;22.71;43.48;103142.53;6399375;22;46980;-79
2024/02/17 13:50:18;;;;;;;;;2.00;1.00;;;;;22.83;43.80;103159.22;6399827;22;45294;-82
2024/02/17 13:52:43;;;;;;;;;1.00;1.00;;;;;22.84;43.55;103151.16;6400014;22;45319;-84
2024/02/17 13:55:14;;;;;;;;;1.00;1.00;;;;;22.82;43.87;103141.63;6400904;22;45330;-81
2024/02/17 13:57:40;;;;;;;;;0.33;0.33;;;;;22.87;43.76;103146.53;6398924;22;46883;-79
2024/02/17 14:00:06;;;;;;;;;0.00;0.00;;;;;22.89;44.08;103136.63;6399711;22;45301;-80
2024/02/17 14:02:32;;;;;;;;;3.00;1.00;;;;;22.89;43.82;103140.13;6399621;22;45326;-84
2024/02/17 14:04:59;;;;;;;;;0.67;0.00;;;;;22.86;43.55;103113.84;6399403;22;45370;-82
2024/02/17 14:07:24;;;;;;;;;1.00;1.00;;;;;22.84;44.08;103118.44;6399013;22;46335;-82
2024/02/17 14:09:51;;;;;;;;;1.00;1.00;;;;;22.91;43.96;103130.22;6399140;22;45185;-77
2024/02/17 14:12:17;;;;;;;;;0.00;0.00;;;;;22.92;43.61;103125.75;6399846;22;45279;-77
2024/02/17 14:14:43;;;;;;;;;0.67;0.00;;;;;22.91;43.82;103129.38;6401263;22;45355;-78
2024/02/17 14:17:09;;;;;;;;;1.00;1.00;;;;;22.85;44.05;103123.63;6400304;22;46075;-82
2024/02/17 14:19:37;;;;;;;;;1.00;1.00;;;;;22.86;44.25;103111.19;6400474;22;45274;-82
2024/02/17 14:22:07;;;;;;;;;0.00;0.00;;;;;22.74;43.63;103095.31;6401069;22;45224;-82
2024/02/17 14:24:33;;;;;;;;;0.67;0.00;;;;;22.92;44.06;103120.47;6400862;22;45310;-81
2024/02/17 14:26:59;;;;;;;;;2.67;0.67;;;;;22.85;44.34;103101.53;6400292;22;46034;-82
2024/02/17 14:29:28;;;;;;;;;0.67;0.00;;;;;22.83;44.08;103096.38;6401129;22;45597;-84
2024/02/17 14:31:53;;;;;;;;;0.00;0.00;;;;;22.83;44.19;103092.88;6400205;22;45236;-78
2024/02/17 14:34:19;;;;;;;;;0.00;0.00;;;;;22.81;44.38;103081.56;6400515;22;48944;-83
2024/02/17 14:36:44;;;;;;;;;2.00;0.00;;;;;22.68;44.43;103066.66;6399847;22;47083;-84
2024/02/17 14:39:09;;;;;;;;;1.00;1.00;;;;;22.83;44.30;103096.38;6400779;22;45295;-83
2024/02/17 14:41:35;;;;;;;;;1.00;1.00;;;;;22.92;43.87;103116.00;6400081;22;45225;-84
2024/02/17 14:44:02;;;;;;;;;1.00;1.00;;;;;22.91;43.88;103119.59;6400447;22;55567;-85
2024/02/17 14:46:34;;;;;;;;;0.00;0.00;;;;;22.89;44.34;103110.94;6400901;22;46857;-82
2024/02/17 14:49:03;;;;;;;;;4.00;1.00;;;;;22.83;43.78;103107.00;6400505;22;45298;-84
2024/02/17 14:51:30;;;;;;;;;0.67;0.67;;;;;22.82;43.86;103112.44;6400832;22;45442;-84
2024/02/17 14:53:56;;;;;;;;;0.00;0.00;;;;;22.69;43.88;103092.19;6400242;22;45405;-83
2024/02/17 14:56:21;;;;;;;;;0.00;0.00;;;;;22.90;43.59;103133.84;6400428;22;46172;-82
2024/02/17 14:58:46;;;;;;;;;3.00;1.00;;;;;22.90;44.20;103127.72;6400119;22;45232;-83
2024/02/17 15:01:16;;;;;;;;;0.00;0.00;;;;;22.87;43.90;103131.47;6400301;22;45220;-84
2024/02/17 15:03:42;;;;;;;;;1.00;1.00;;;;;22.84;43.93;103129.06;6400935;22;45099;-84
2024/02/17 15:06:07;;;;;;;;;1.00;1.00;;;;;22.89;43.80;103137.47;6400324;22;46130;-84
2024/02/17 15:08:33;;;;;;;;;1.00;0.00;;;;;22.88;44.35;103127.81;6400353;22;45312;-83
2024/02/17 15:10:59;;;;;;;;;0.00;0.00;;;;;22.87;44.15;103126.16;6399951;22;45286;-79
2024/02/17 15:13:26;;;;;;;;;2.00;0.33;;;;;22.86;44.38;103127.13;6400527;22;45476;-80
2024/02/17 15:15:52;;;;;;;;;0.00;0.00;;;;;22.79;43.91;103124.16;6400527;22;46378;-80
2024/02/17 15:18:17;;;;;;;;;0.00;0.00;;;;;22.77;44.39;103126.06;6400006;22;45329;-81
2024/02/17 15:20:43;;;;;;;;;1.00;1.00;;;;;22.88;44.20;103140.25;6400500;22;45300;-86
2024/02/17 15:23:08;;;;;;;;;2.67;1.00;;;;;22.79;44.19;103126.81;6399703;22;45294;-75
2024/02/17 15:25:34;;;;;;;;;0.00;0.00;;;;;22.81;44.32;103116.06;6399965;22;46940;-79
2024/02/17 15:28:00;;;;;;;;;2.00;1.00;;;;;22.89;44.16;103124.22;6399819;22;45252;-79
2024/02/17 15:30:25;;;;;;;;;1.00;0.33;;;;;22.80;43.34;103104.59;6401112;22;45220;-80
2024/02/17 15:32:50;;;;;;;;;0.00;0.00;;;;;22.85;42.87;103118.31;6401020;22;45245;-82
2024/02/17 15:35:16;;;;;;;;;0.00;0.00;;;;;22.79;42.88;103110.88;6400711;22;45547;-79
2024/02/17 15:37:41;;;;;;;;;0.00;0.00;;;;;22.83;42.51;103120.25;6400656;22;45338;-84
2024/02/17 15:40:07;;;;;;;;;2.00;0.00;;;;;22.79;42.43;103121.50;6400361;22;48147;-81
2024/02/17 15:42:32;;;;;;;;;0.00;0.00;;;;;22.81;42.66;103134.63;6400670;22;45180;-79
2024/02/17 15:44:57;;;;;;;;;1.00;0.00;;;;;22.72;42.51;103125.63;6400738;22;48789;-78
2024/02/17 15:47:23;;;;;;;;;0.33;0.33;;;;;22.69;42.33;103121.38;6400399;22;45388;-76
2024/02/17 15:49:48;;;;;;;;;0.00;0.00;;;;;22.78;42.04;103137.53;6400570;22;52972;-80
2024/02/17 15:52:13;;;;;;;;;0.00;0.00;;;;;22.76;41.81;103140.34;6400704;22;45617;-81
2024/02/17 15:54:39;;;;;;;;;0.00;0.00;;;;;22.74;42.06;103143.09;6399941;22;54833;-82
2024/02/17 15:57:04;;;;;;;;;0.33;0.33;;;;;22.70;42.35;103133.72;6400256;22;64372;-85
2024/02/17 15:59:29;;;;;;;;;0.00;0.00;;;;;22.69;41.86;103134.66;6401272;22;60812;-80
2024/02/17 16:01:55;;;;;;;;;0.00;0.00;;;;;22.71;41.59;103140.72;6400400;22;45351;-79
2024/02/17 16:04:21;;;;;;;;;0.00;0.00;;;;;22.71;41.20;103148.69;6400523;22;45920;-83
2024/02/17 16:06:46;;;;;;;;;1.00;0.00;;;;;22.70;41.58;103152.31;6400190;22;45418;-79
2024/02/17 16:09:12;;;;;;;;;0.00;0.00;;;;;22.68;41.45;103156.88;6400087;22;45377;-84
2024/02/17 16:11:37;;;;;;;;;0.00;0.00;;;;;22.67;41.38;103155.16;6400534;22;45380;-84
2024/02/17 16:14:02;;;;;;;;;0.00;0.00;;;;;22.66;41.06;103156.16;6400537;22;46073;-80
2024/02/17 16:16:29;;;;;;;;;1.00;0.00;;;;;22.66;40.94;103160.63;6401253;22;45355;-80
2024/02/17 16:18:58;;;;;;;;;0.00;0.00;;;;;22.62;40.99;103158.22;6400411;22;45174;-85
2024/02/17 16:21:24;;;;;;;;;0.00;0.00;;;;;22.64;40.63;103163.38;6400608;22;45312;-85
2024/02/17 16:23:49;;;;;;;;;0.00;0.00;;;;;22.62;40.94;103166.19;6399966;22;46127;-83
2024/02/17 16:26:16;;;;;;;;;0.67;0.00;;;;;22.61;41.29;103159.16;6372253;22;45310;-86
2024/02/17 16:28:41;;;;;;;;;1.00;1.00;;;;;22.62;41.43;103160.03;6400559;22;45281;-86
2024/02/17 16:31:08;;;;;;;;;0.00;0.00;;;;;22.61;40.70;103158.34;6400857;22;45315;-83
2024/02/17 16:33:35;;;;;;;;;0.00;0.00;;;;;22.55;40.85;103151.75;6400959;22;45273;-80
2024/02/17 16:36:02;;;;;;;;;1.00;0.00;;;;;22.60;41.13;103154.00;6399593;22;45267;-81
2024/02/17 16:38:27;;;;;;;;;1.33;0.00;;;;;22.60;41.32;103165.47;6399757;22;45239;-79
2024/02/17 16:40:52;;;;;;;;;0.00;0.00;;;;;22.62;41.25;103165.31;6400636;22;45384;-79
2024/02/17 16:43:18;;;;;;;;;0.00;0.00;;;;;22.58;41.38;103155.94;6400216;22;45797;-80
2024/02/17 16:45:43;;;;;;;;;0.33;0.00;;;;;22.59;41.28;103158.47;6400285;22;45403;-78
2024/02/17 16:48:08;;;;;;;;;0.00;0.00;;;;;22.59;41.56;103155.81;6400407;22;56603;-81
2024/02/17 16:50:33;;;;;;;;;1.00;1.00;;;;;22.54;41.93;103135.94;6401155;22;45401;-80
2024/02/17 16:52:59;;;;;;;;;3.33;0.67;;;;;22.66;42.15;103158.81;6400518;22;46026;-77
2024/02/17 16:55:26;;;;;;;;;0.00;0.00;;;;;22.63;42.28;103154.59;6399457;22;62199;-80
2024/02/17 16:57:52;;;;;;;;;0.67;0.67;;;;;22.66;42.38;103150.00;6400352;22;45263;-78
2024/02/17 17:00:18;;;;;;;;;0.00;0.00;;;;;22.63;42.40;103143.13;6400192;22;45412;-79
2024/02/17 17:02:43;;;;;;;;;0.00;0.00;;;;;22.70;42.10;103146.16;6399897;22;45908;-81
2024/02/17 17:05:09;;;;;;;;;0.00;0.00;;;;;22.72;42.44;103149.50;6400160;22;45177;-76
2024/02/17 17:07:34;;;;;;;;;0.67;0.67;;;;;22.73;42.73;103145.91;6400492;22;45389;-80
2024/02/17 17:09:59;;;;;;;;;0.00;0.00;;;;;22.75;42.61;103143.94;6400363;22;45370;-80
2024/02/17 17:12:24;;;;;;;;;0.00;0.00;;;;;22.71;42.96;103135.41;6399941;22;46947;-81
2024/02/17 17:14:50;;;;;;;;;2.00;1.00;;;;;22.77;43.11;103142.00;6400544;22;45445;-83
2024/02/17 17:17:16;;;;;;;;;0.00;0.00;;;;;22.70;43.22;103127.56;6400401;22;45208;-84
2024/02/17 17:19:41;;;;;;;;;0.67;0.67;;;;;22.80;43.59;103140.91;6399809;22;45430;-79
2024/02/17 17:22:07;;;;;;;;;1.00;1.00;;;;;22.81;43.63;103138.13;6400002;22;45223;-81
2024/02/17 17:24:32;;;;;;;;;0.00;0.00;;;;;22.76;43.94;103123.56;6400099;22;45250;-80
2024/02/17 17:26:57;;;;;;;;;0.00;0.00;;;;;22.82;43.94;103138.97;6399811;22;45271;-77
2024/02/17 17:29:23;;;;;;;;;0.00;0.00;;;;;22.83;44.01;103143.28;6400367;22;45373;-75
2024/02/17 17:31:48;;;;;;;;;2.00;0.33;;;;;22.84;44.50;103153.81;6399924;22;45531;-75
2024/02/17 17:34:14;;;;;;;;;0.00;0.00;;;;;22.84;44.29;103150.31;6399384;22;45330;-75
2024/02/17 17:36:41;;;;;;;;;0.00;0.00;;;;;22.84;44.54;103158.25;6399618;22;45286;-75
2024/02/17 17:39:06;;;;;;;;;0.67;0.67;;;;;22.85;44.44;103154.63;6399990;22;45509;-74
2024/02/17 17:41:32;;;;;;;;;3.00;1.00;;;;;22.87;44.79;103154.50;6399532;22;45338;-74
2024/02/17 17:43:57;;;;;;;;;0.00;0.00;;;;;22.79;44.36;103153.34;6399996;22;45306;-75
2024/02/17 17:46:22;;;;;;;;;0.00;0.00;;;;;22.84;44.77;103166.22;6400142;22;45207;-75
2024/02/17 17:48:50;;;;;;;;;2.00;1.00;;;;;22.85;44.34;103168.75;6399253;22;45205;-75
2024/02/17 17:51:17;;;;;;;;;3.00;0.00;;;;;22.86;44.81;103172.25;6399222;22;47165;-75
2024/02/17 17:53:42;;;;;;;;;1.00;1.00;;;;;22.87;44.66;103170.44;6399785;22;45243;-76
2024/02/17 17:56:09;;;;;;;;;0.00;0.00;;;;;22.88;44.58;103172.09;6399345;22;45274;-75
2024/02/17 17:58:34;;;;;;;;;0.00;0.00;;;;;22.88;44.68;103172.09;6399645;22;45304;-76
2024/02/17 18:01:00;;;;;;;;;2.67;1.00;;;;;22.89;44.91;103161.38;6399018;22;46212;-74
2024/02/17 18:03:25;;;;;;;;;3.33;1.00;;;;;22.91;44.53;103163.88;6399066;22;45291;-75
2024/02/17 18:05:51;;;;;;;;;2.00;1.00;;;;;22.90;44.91;103160.38;6399163;22;45275;-74
2024/02/17 18:08:16;;;;;;;;;0.00;0.00;;;;;22.89;44.65;103150.75;6398663;22;58566;-76
2024/02/17 18:10:42;;;;;;;;;0.00;0.00;;;;;22.88;45.15;103146.41;6398853;22;45970;-79
2024/02/17 18:13:08;;;;;;;;;1.00;1.00;;;;;22.93;44.90;103146.00;6399632;22;45342;-82
2024/02/17 18:15:34;;;;;;;;;0.00;0.00;;;;;22.85;44.58;103136.88;6399075;22;45270;-80
2024/02/17 18:18:00;;;;;;;;;2.00;0.00;;;;;22.96;45.10;103159.03;6398668;22;45445;-80
2024/02/17 18:20:28;;;;;;;;;2.67;0.00;;;;;22.98;45.06;103159.72;6399713;22;45962;-81
2024/02/17 18:22:54;;;;;;;;;0.33;0.33;;;;;22.99;44.94;103161.44;6398939;22;45248;-84
2024/02/17 18:25:19;;;;;;;;;0.67;0.67;;;;;23.00;44.82;103164.94;6399931;22;45249;-83
2024/02/17 18:27:44;;;;;;;;;0.33;0.33;;;;;23.02;45.02;103160.31;6399000;22;45413;-74
2024/02/17 18:30:12;;;;;;;;;1.00;1.00;;;;;23.00;44.82;103159.63;6398590;22;45351;-82